createdAt,value
2019-04-14T00:01:19.422Z,5.33
2019-04-14T00:03:52.432Z,5.53
2019-04-14T00:06:22.311Z,5.35
2019-04-14T00:08:52.235Z,4.90
2019-04-14T00:11:21.253Z,5.25
2019-04-14T00:13:50.217Z,4.80
2019-04-14T00:16:18.930Z,5.40
2019-04-14T00:18:47.565Z,5.47
2019-04-14T00:21:17.240Z,5.95
2019-04-14T00:23:45.987Z,5.25
2019-04-14T00:26:24.846Z,5.45
2019-04-14T00:28:53.582Z,5.17
2019-04-14T00:31:28.478Z,5.65
2019-04-14T00:33:58.853Z,5.60
2019-04-14T00:37:01.332Z,5.22
2019-04-14T00:39:35.717Z,4.85
2019-04-14T00:42:23.439Z,5.53
2019-04-14T00:45:00.453Z,5.10
2019-04-14T00:47:59.730Z,4.80
2019-04-14T00:50:21.638Z,6.15
2019-04-14T00:52:50.296Z,5.60
2019-04-14T00:55:18.911Z,5.17
2019-04-14T00:57:48.598Z,4.75
2019-04-14T01:00:19.247Z,5.25
2019-04-14T01:02:49.306Z,5.15
2019-04-14T01:05:18.060Z,5.08
2019-04-14T01:07:48.272Z,4.75
2019-04-14T01:10:17.084Z,5.80
2019-04-14T01:12:45.764Z,4.90
2019-04-14T01:15:15.733Z,5.30
2019-04-14T01:17:48.553Z,4.85
2019-04-14T01:20:17.402Z,5.00
2019-04-14T01:22:46.699Z,5.30
2019-04-14T01:25:15.453Z,4.87
2019-04-14T01:27:45.040Z,5.50
2019-04-14T01:30:13.777Z,5.47
2019-04-14T01:32:43.573Z,4.95
2019-04-14T01:35:13.862Z,5.08
2019-04-14T01:37:42.544Z,5.15
2019-04-14T01:40:12.196Z,4.92
2019-04-14T01:42:41.973Z,5.10
2019-04-14T01:45:12.223Z,4.65
2019-04-14T01:47:41.867Z,5.03
2019-04-14T01:50:10.691Z,5.00
2019-04-14T01:52:52.283Z,5.10
2019-04-14T01:55:46.325Z,5.10
2019-04-14T01:58:36.772Z,4.87
2019-04-14T02:01:12.727Z,5.20
2019-04-14T02:03:41.506Z,5.15
2019-04-14T02:06:11.329Z,4.70
2019-04-14T02:08:40.060Z,4.40
2019-04-14T02:11:11.604Z,4.72
2019-04-14T02:13:40.455Z,4.80
2019-04-14T02:16:18.506Z,4.70
2019-04-14T02:18:40.456Z,5.47
2019-04-14T02:21:10.442Z,5.00
2019-04-14T02:23:39.466Z,5.15
2019-04-14T02:26:09.120Z,4.87
2019-04-14T02:28:37.968Z,4.97
2019-04-14T02:31:17.437Z,4.92
2019-04-14T02:34:00.694Z,4.45
2019-04-14T02:39:21.062Z,4.70
2019-04-14T02:46:40.034Z,5.28
2019-04-14T02:49:18.721Z,5.70
2019-04-14T02:51:34.965Z,5.20
2019-04-14T02:54:05.076Z,5.30
2019-04-14T02:56:41.268Z,4.95
2019-04-14T02:59:05.901Z,5.10
2019-04-14T03:01:45.233Z,4.58
2019-04-14T03:04:09.466Z,5.08
2019-04-14T03:06:33.588Z,5.10
2019-04-14T03:09:24.685Z,5.20
2019-04-14T03:11:41.593Z,5.37
2019-04-14T03:14:09.476Z,4.80
2019-04-14T03:17:14.473Z,5.28
2019-04-14T03:22:37.419Z,5.70
2019-04-14T03:25:09.732Z,5.12
2019-04-14T03:27:54.846Z,5.00
2019-04-14T03:33:26.925Z,5.45
2019-04-14T03:37:59.452Z,5.05
2019-04-14T03:40:34.330Z,5.00
2019-04-14T03:43:05.913Z,5.53
2019-04-14T03:45:46.834Z,5.45
2019-04-14T03:48:39.316Z,5.12
2019-04-14T03:50:28.200Z,5.08
2019-04-14T03:53:06.561Z,5.20
2019-04-14T03:55:20.323Z,5.50
2019-04-14T03:57:36.760Z,5.22
2019-04-14T04:00:05.408Z,5.03
2019-04-14T04:02:34.050Z,5.03
2019-04-14T04:05:02.678Z,4.97
2019-04-14T04:07:32.317Z,4.53
2019-04-14T04:10:05.169Z,5.28
2019-04-14T04:12:33.846Z,5.20
2019-04-14T04:15:02.517Z,5.10
2019-04-14T04:18:06.981Z,5.05
2019-04-14T04:20:54.422Z,4.70
2019-04-14T04:23:44.666Z,5.20
2019-04-14T04:26:32.595Z,4.92
2019-04-14T04:29:15.776Z,4.65
2019-04-14T04:32:02.146Z,4.78
2019-04-14T04:34:46.647Z,5.12
2019-04-14T04:37:34.936Z,4.78
2019-04-14T04:40:11.476Z,4.45
2019-04-14T04:42:41.532Z,4.55
2019-04-14T04:45:10.438Z,3.90
2019-04-14T04:47:39.068Z,4.33
2019-04-14T04:50:08.607Z,4.42
2019-04-14T04:52:37.308Z,4.42
2019-04-14T04:55:06.761Z,4.37
2019-04-14T04:57:35.393Z,4.17
2019-04-14T05:00:06.980Z,4.22
2019-04-14T05:02:35.729Z,4.28
2019-04-14T05:05:06.053Z,4.42
2019-04-14T05:07:34.762Z,3.98
2019-04-14T05:10:30.623Z,4.05
2019-04-14T05:13:07.309Z,3.98
2019-04-14T05:15:55.200Z,3.98
2019-04-14T05:18:28.874Z,4.22
2019-04-14T05:20:57.666Z,3.85
2019-04-14T05:23:26.289Z,3.90
2019-04-14T05:25:55.936Z,4.33
2019-04-14T05:28:24.796Z,3.72
2019-04-14T05:30:55.014Z,3.50
2019-04-14T05:33:24.942Z,4.00
2019-04-14T05:35:53.700Z,3.92
2019-04-14T05:38:23.518Z,4.10
2019-04-14T05:40:52.331Z,3.92
2019-04-14T05:43:33.702Z,3.92
2019-04-14T05:45:52.233Z,3.85
2019-04-14T05:48:20.995Z,4.03
2019-04-14T05:50:49.606Z,3.60
2019-04-14T05:53:18.241Z,3.77
2019-04-14T05:55:46.863Z,3.70
2019-04-14T05:58:16.417Z,3.27
2019-04-14T06:00:47.055Z,3.90
2019-04-14T06:03:16.664Z,3.35
2019-04-14T06:05:45.494Z,3.45
2019-04-14T06:08:15.991Z,3.42
2019-04-14T06:10:44.619Z,3.83
2019-04-14T06:13:13.317Z,3.58
2019-04-14T06:15:41.988Z,3.67
2019-04-14T06:18:10.608Z,3.55
2019-04-14T06:20:39.253Z,3.90
2019-04-14T06:23:07.861Z,3.40
2019-04-14T06:25:36.586Z,3.85
2019-04-14T06:28:05.284Z,4.00
2019-04-14T06:30:55.932Z,3.65
2019-04-14T06:33:58.883Z,3.60
2019-04-14T06:36:46.606Z,3.70
2019-04-14T06:39:34.270Z,4.00
2019-04-14T06:42:02.983Z,3.67
2019-04-14T06:44:31.600Z,3.52
2019-04-14T06:47:00.343Z,3.60
2019-04-14T06:49:29.029Z,3.52
2019-04-14T06:51:57.646Z,3.42
2019-04-14T06:54:26.266Z,3.72
2019-04-14T06:56:54.867Z,3.55
2019-04-14T06:59:23.515Z,3.45
2019-04-14T07:01:52.139Z,3.37
2019-04-14T07:04:20.842Z,3.45
2019-04-14T07:06:51.470Z,3.50
2019-04-14T07:09:20.254Z,3.42
2019-04-14T07:11:48.886Z,3.30
2019-04-14T07:14:17.566Z,3.10
2019-04-14T07:16:46.450Z,3.15
2019-04-14T07:19:15.095Z,2.98
2019-04-14T07:21:43.776Z,3.55
2019-04-14T07:24:12.401Z,3.40
2019-04-14T07:26:41.044Z,3.58
2019-04-14T07:29:09.710Z,3.65
2019-04-14T07:31:51.954Z,3.33
2019-04-14T07:34:27.948Z,3.17
2019-04-14T07:37:05.328Z,2.80
2019-04-14T07:40:01.949Z,3.30
2019-04-14T07:42:51.053Z,2.85
2019-04-14T07:45:24.917Z,3.27
2019-04-14T07:48:08.031Z,3.10
2019-04-14T07:50:54.665Z,3.00
2019-04-14T07:53:45.120Z,3.33
2019-04-14T07:56:42.137Z,3.22
2019-04-14T07:59:38.877Z,2.87
2019-04-14T08:02:29.390Z,3.30
2019-04-14T08:05:06.646Z,3.12
2019-04-14T08:07:35.310Z,3.20
2019-04-14T08:10:03.993Z,2.80
2019-04-14T08:12:35.135Z,3.10
2019-04-14T08:15:03.012Z,2.62
2019-04-14T08:17:31.745Z,2.70
2019-04-14T08:20:00.396Z,2.70
2019-04-14T08:22:29.030Z,3.20
2019-04-14T08:24:57.662Z,3.35
2019-04-14T08:27:26.324Z,3.08
2019-04-14T08:29:54.973Z,3.00
2019-04-14T08:32:23.668Z,3.52
2019-04-14T08:34:52.310Z,3.20
2019-04-14T08:37:20.942Z,3.40
2019-04-14T08:39:50.778Z,3.22
2019-04-14T08:42:44.467Z,3.77
2019-04-14T08:45:18.866Z,2.92
2019-04-14T08:47:52.753Z,3.20
2019-04-14T08:50:46.256Z,3.15
2019-04-14T08:53:30.331Z,3.05
2019-04-14T08:56:23.385Z,3.40
2019-04-14T08:59:14.046Z,3.30
2019-04-14T09:02:00.532Z,3.20
2019-04-14T09:04:34.416Z,3.22
2019-04-14T09:07:20.277Z,3.40
2019-04-14T09:09:53.526Z,2.98
2019-04-14T09:12:27.054Z,3.22
2019-04-14T09:14:58.282Z,3.20
2019-04-14T09:17:32.264Z,3.40
2019-04-14T09:20:03.052Z,3.40
2019-04-14T09:22:34.116Z,3.62
2019-04-14T09:25:02.757Z,3.65
2019-04-14T09:27:31.404Z,3.20
2019-04-14T09:30:00.068Z,3.20
2019-04-14T09:32:30.124Z,3.70
2019-04-14T09:34:58.773Z,2.92
2019-04-14T09:37:27.416Z,3.35
2019-04-14T09:39:56.123Z,2.85
2019-04-14T09:42:24.822Z,2.72
2019-04-14T09:44:53.490Z,3.00
2019-04-14T09:47:22.123Z,2.80
2019-04-14T09:49:50.746Z,3.02
2019-04-14T09:52:19.528Z,3.20
2019-04-14T09:54:48.239Z,3.47
2019-04-14T09:57:16.911Z,3.02
2019-04-14T09:59:46.676Z,3.20
2019-04-14T10:02:15.422Z,3.52
2019-04-14T10:04:44.169Z,3.37
2019-04-14T10:07:12.835Z,3.83
2019-04-14T10:09:41.558Z,3.98
2019-04-14T10:12:10.290Z,4.17
2019-04-14T10:14:38.944Z,4.30
2019-04-14T10:17:07.658Z,4.75
2019-04-14T10:19:36.269Z,4.28
2019-04-14T10:22:05.886Z,4.72
2019-04-14T10:24:34.497Z,4.37
2019-04-14T10:27:05.653Z,4.67
2019-04-14T10:29:34.390Z,5.17
2019-04-14T10:32:03.060Z,5.00
2019-04-14T10:34:31.713Z,5.62
2019-04-14T10:37:01.387Z,5.47
2019-04-14T10:39:30.098Z,5.65
2019-04-14T10:41:58.737Z,5.95
2019-04-14T10:44:30.190Z,5.78
2019-04-14T10:46:58.815Z,5.50
2019-04-14T10:49:28.806Z,5.53
2019-04-14T10:51:57.411Z,5.40
2019-04-14T10:56:57.063Z,5.25
2019-04-14T10:59:25.761Z,4.83
2019-04-14T11:01:54.524Z,5.80
2019-04-14T11:04:23.266Z,5.30
2019-04-14T11:06:59.239Z,5.25
2019-04-14T11:09:27.936Z,5.47
2019-04-14T11:11:56.721Z,5.25
2019-04-14T11:14:25.564Z,5.12
2019-04-14T11:16:54.313Z,5.10
2019-04-14T11:19:23.033Z,5.03
2019-04-14T11:21:51.892Z,5.85
2019-04-14T11:24:20.626Z,4.90
2019-04-14T11:26:49.368Z,5.78
2019-04-14T11:29:18.141Z,5.00
2019-04-14T11:32:11.883Z,4.58
2019-04-14T11:34:48.424Z,4.78
2019-04-14T11:37:34.809Z,4.22
2019-04-14T11:40:05.360Z,4.12
2019-04-14T11:42:34.251Z,4.25
2019-04-14T11:45:03.048Z,4.08
2019-04-14T11:47:32.058Z,4.42
2019-04-14T11:50:01.951Z,4.15
2019-04-14T11:52:31.767Z,4.75
2019-04-14T11:55:00.512Z,3.98
2019-04-14T11:57:29.226Z,4.37
2019-04-14T12:00:07.229Z,4.40
2019-04-14T12:02:51.258Z,4.75
2019-04-14T12:05:27.531Z,4.35
2019-04-14T12:08:13.846Z,4.90
2019-04-14T12:10:42.640Z,6.08
2019-04-14T12:13:12.336Z,5.05
2019-04-14T12:15:41.127Z,4.62
2019-04-14T12:18:09.936Z,4.72
2019-04-14T12:20:38.714Z,4.85
2019-04-14T12:23:07.399Z,4.95
2019-04-14T12:25:36.074Z,4.72
2019-04-14T12:28:04.854Z,4.58
2019-04-14T12:30:33.879Z,4.72
2019-04-14T12:33:02.559Z,4.87
2019-04-14T12:35:31.189Z,4.58
2019-04-14T12:37:59.933Z,4.53
2019-04-14T12:40:28.731Z,4.83
2019-04-14T12:43:04.155Z,5.20
2019-04-14T12:45:54.616Z,4.80
2019-04-14T12:48:39.355Z,4.55
2019-04-14T12:51:12.434Z,4.42
2019-04-14T12:53:41.121Z,4.58
2019-04-14T12:56:09.960Z,4.20
2019-04-14T12:58:52.015Z,4.58
2019-04-14T13:01:21.194Z,4.30
2019-04-14T13:03:49.938Z,4.60
2019-04-14T13:06:18.656Z,4.95
2019-04-14T13:08:47.443Z,4.50
2019-04-14T13:11:17.540Z,4.45
2019-04-14T13:13:46.448Z,4.35
2019-04-14T13:16:15.020Z,4.17
2019-04-14T13:18:46.871Z,4.53
2019-04-14T13:21:15.713Z,4.90
2019-04-14T13:23:44.377Z,5.25
2019-04-14T13:26:13.081Z,4.87
2019-04-14T13:28:41.785Z,4.75
2019-04-14T13:31:10.497Z,4.47
2019-04-14T13:33:39.265Z,4.67
2019-04-14T13:36:08.018Z,4.80
2019-04-14T13:38:36.973Z,4.53
2019-04-14T13:41:05.635Z,4.50
2019-04-14T13:43:34.331Z,4.30
2019-04-14T13:46:03.053Z,4.95
2019-04-14T13:48:31.859Z,4.05
2019-04-14T13:51:00.537Z,4.50
2019-04-14T13:53:29.149Z,4.90
2019-04-14T13:55:57.861Z,5.00
2019-04-14T13:58:26.574Z,4.78
2019-04-14T14:00:55.515Z,4.47
2019-04-14T14:03:24.214Z,4.80
2019-04-14T14:05:52.905Z,4.55
2019-04-14T14:08:21.544Z,4.53
2019-04-14T14:10:51.906Z,4.87
2019-04-14T14:13:41.166Z,5.05
2019-04-14T14:16:34.374Z,5.30
2019-04-14T14:19:07.915Z,4.95
2019-04-14T14:22:01.649Z,5.20
2019-04-14T14:24:38.169Z,4.78
2019-04-14T14:27:08.113Z,4.62
2019-04-14T14:29:37.265Z,5.12
2019-04-14T14:32:07.864Z,4.45
2019-04-14T14:34:37.214Z,4.85
2019-04-14T14:37:06.101Z,4.12
2019-04-14T14:39:35.084Z,4.12
2019-04-14T14:42:03.724Z,3.90
2019-04-14T14:44:37.581Z,3.33
2019-04-14T14:47:18.343Z,3.87
2019-04-14T14:49:59.052Z,3.80
2019-04-14T14:52:28.135Z,3.60
2019-04-14T14:54:56.811Z,3.70
2019-04-14T14:57:27.118Z,4.00
2019-04-14T14:59:55.929Z,4.05
2019-04-14T15:02:24.683Z,3.92
2019-04-14T15:04:53.452Z,3.77
2019-04-14T15:07:22.242Z,3.90
2019-04-14T15:09:51.396Z,3.98
2019-04-14T15:12:20.263Z,3.60
2019-04-14T15:14:49.388Z,3.33
2019-04-14T15:17:18.374Z,3.33
2019-04-14T15:19:47.007Z,3.45
2019-04-14T15:22:15.670Z,2.98
2019-04-14T15:24:44.550Z,3.45
2019-04-14T15:27:14.230Z,2.80
2019-04-14T15:29:43.895Z,3.22
2019-04-14T15:32:13.616Z,3.27
2019-04-14T15:34:42.277Z,3.30
2019-04-14T15:37:10.897Z,3.50
2019-04-14T15:39:39.546Z,3.10
2019-04-14T15:42:08.182Z,3.50
2019-04-14T15:44:36.877Z,2.85
2019-04-14T15:47:05.728Z,3.20
2019-04-14T15:49:34.348Z,3.70
2019-04-14T15:52:03.165Z,3.40
2019-04-14T15:54:31.783Z,3.12
2019-04-14T15:57:19.551Z,3.00
2019-04-14T16:00:04.271Z,3.05
2019-04-14T16:02:52.134Z,2.85
2019-04-14T16:05:45.654Z,3.10
2019-04-14T16:08:19.061Z,3.25
2019-04-14T16:10:58.916Z,3.20
2019-04-14T16:13:54.434Z,3.02
2019-04-14T16:16:29.211Z,3.00
2019-04-14T16:19:06.184Z,2.87
2019-04-14T16:21:34.926Z,5.33
2019-04-14T16:24:06.061Z,3.62
2019-04-14T16:26:55.080Z,2.80
2019-04-14T16:29:27.869Z,3.08
2019-04-14T16:32:18.407Z,3.62
2019-04-14T16:34:53.535Z,3.08
2019-04-14T16:37:23.170Z,3.90
2019-04-14T16:39:51.899Z,3.52
2019-04-14T16:42:26.356Z,3.75
2019-04-14T16:44:55.114Z,4.12
2019-04-14T16:47:23.784Z,3.40
2019-04-14T16:49:52.461Z,3.30
2019-04-14T16:52:38.257Z,3.08
2019-04-14T16:55:29.773Z,3.35
2019-04-14T16:58:16.242Z,2.92
2019-04-14T17:00:49.772Z,3.33
2019-04-14T17:03:18.390Z,3.60
2019-04-14T17:05:51.158Z,3.95
2019-04-14T17:08:20.327Z,3.17
2019-04-14T17:10:50.820Z,2.85
2019-04-14T17:13:19.520Z,2.83
2019-04-14T17:16:06.988Z,3.22
2019-04-14T17:18:44.524Z,2.87
2019-04-14T17:21:30.902Z,2.77
2019-04-14T17:24:24.346Z,3.20
2019-04-14T17:27:14.878Z,2.90
2019-04-14T17:30:10.524Z,2.87
2019-04-14T17:32:48.128Z,3.08
2019-04-14T17:35:53.768Z,2.70
2019-04-14T17:38:30.886Z,3.27
2019-04-14T17:41:08.871Z,3.40
2019-04-14T17:43:56.683Z,3.05
2019-04-14T17:46:43.371Z,3.50
2019-04-14T17:49:31.311Z,4.67
2019-04-14T17:52:34.261Z,4.37
2019-04-14T17:55:12.880Z,3.75
2019-04-14T17:57:59.593Z,3.42
2019-04-14T18:00:47.352Z,4.42
2019-04-14T18:03:38.259Z,3.35
2019-04-14T18:06:12.089Z,3.47
2019-04-14T18:08:58.610Z,2.90
2019-04-14T18:11:31.264Z,3.05
2019-04-14T18:14:07.682Z,3.37
2019-04-14T18:16:44.713Z,2.80
2019-04-14T18:19:38.500Z,2.90
2019-04-14T18:22:07.185Z,3.10
2019-04-14T18:24:42.412Z,3.27
2019-04-14T18:27:06.344Z,3.00
2019-04-14T18:29:39.870Z,3.17
2019-04-14T18:32:16.848Z,2.95
2019-04-14T18:35:05.785Z,3.30
2019-04-14T18:37:52.370Z,3.02
2019-04-14T18:40:46.262Z,3.02
2019-04-14T18:43:41.419Z,3.67
2019-04-14T18:46:14.625Z,3.37
2019-04-14T18:49:08.381Z,2.95
2019-04-14T18:51:45.126Z,3.15
2019-04-14T18:54:36.666Z,3.47
2019-04-14T18:57:19.843Z,3.62
2019-04-14T19:00:07.544Z,3.35
2019-04-14T19:02:37.920Z,3.77
2019-04-14T19:05:07.421Z,3.35
2019-04-14T19:07:36.184Z,3.40
2019-04-14T19:10:05.845Z,3.70
2019-04-14T19:12:45.599Z,3.40
2019-04-14T19:15:46.020Z,3.95
2019-04-14T19:18:29.541Z,3.80
2019-04-14T19:21:01.727Z,3.98
2019-04-14T19:23:30.531Z,4.17
2019-04-14T19:25:59.139Z,3.60
2019-04-14T19:28:27.929Z,4.17
2019-04-14T19:30:56.806Z,3.52
2019-04-14T19:33:25.484Z,3.83
2019-04-14T19:35:54.257Z,3.40
2019-04-14T19:38:22.946Z,3.27
2019-04-14T19:40:51.652Z,3.98
2019-04-14T19:43:24.102Z,3.25
2019-04-14T19:45:50.852Z,3.80
2019-04-14T19:48:19.550Z,3.60
2019-04-14T19:50:48.443Z,3.98
2019-04-14T19:53:17.920Z,3.40
2019-04-14T19:55:46.729Z,3.05
2019-04-14T19:58:15.625Z,3.52
2019-04-14T20:00:44.447Z,3.25
2019-04-14T20:03:13.194Z,2.95
2019-04-14T20:05:41.948Z,2.90
2019-04-14T20:08:10.658Z,3.25
2019-04-14T20:10:40.120Z,3.15
2019-04-14T20:13:09.071Z,2.92
2019-04-14T20:15:48.586Z,3.20
2019-04-14T20:18:39.112Z,3.60
2019-04-14T20:21:29.432Z,3.10
2019-04-14T20:24:06.034Z,3.08
2019-04-14T20:27:10.102Z,3.12
2019-04-14T20:29:42.159Z,3.20
2019-04-14T20:32:39.051Z,2.72
2019-04-14T20:35:09.404Z,2.80
2019-04-14T20:37:38.472Z,2.42
2019-04-14T20:40:07.600Z,2.80
2019-04-14T20:42:36.213Z,2.50
2019-04-14T20:45:06.333Z,2.65
2019-04-14T20:47:35.024Z,2.47
2019-04-14T20:50:06.885Z,2.60
2019-04-14T20:52:36.231Z,2.87
2019-04-14T20:55:06.474Z,2.30
2019-04-14T20:57:35.195Z,2.87
2019-04-14T21:00:04.223Z,2.70
2019-04-14T21:03:03.137Z,2.75
2019-04-14T21:05:57.452Z,2.77
2019-04-14T21:08:53.970Z,3.08
2019-04-14T21:11:28.967Z,2.55
2019-04-14T21:14:33.310Z,2.58
2019-04-14T21:17:09.614Z,2.55
2019-04-14T21:19:52.689Z,2.67
2019-04-14T21:22:28.706Z,2.60
2019-04-14T21:25:13.264Z,2.90
2019-04-14T21:28:10.012Z,2.95
2019-04-14T21:30:55.318Z,2.50
2019-04-14T21:33:45.411Z,2.95
2019-04-14T21:36:28.537Z,3.20
2019-04-14T21:39:31.327Z,2.80
2019-04-14T21:42:02.329Z,2.92
2019-04-14T21:44:31.169Z,2.75
2019-04-14T21:46:59.818Z,2.47
2019-04-14T21:49:28.524Z,3.17
2019-04-14T21:52:16.212Z,2.83
2019-04-14T21:54:45.196Z,2.77
2019-04-14T21:57:32.962Z,2.60
2019-04-14T22:00:26.673Z,2.87
2019-04-14T22:03:16.175Z,2.92
2019-04-14T22:05:50.001Z,2.87
2019-04-14T22:08:25.383Z,2.60
2019-04-14T22:10:58.233Z,2.77
2019-04-14T22:13:26.845Z,2.42
2019-04-14T22:15:56.486Z,2.45
2019-04-14T22:18:25.121Z,2.92
2019-04-14T22:20:53.836Z,2.70
2019-04-14T22:23:22.484Z,2.42
2019-04-14T22:25:51.103Z,2.60
2019-04-14T22:28:19.726Z,2.40
2019-04-14T22:30:48.333Z,2.47
2019-04-14T22:33:16.908Z,2.37
2019-04-14T22:35:45.514Z,2.30
2019-04-14T22:38:14.202Z,2.10
2019-04-14T22:40:42.821Z,2.05
2019-04-14T22:43:11.444Z,2.33
2019-04-14T22:45:40.099Z,1.75
2019-04-14T22:48:08.726Z,2.10
2019-04-14T22:50:37.325Z,2.00
2019-04-14T22:53:06.193Z,2.17
2019-04-14T22:55:34.732Z,2.10
2019-04-14T22:58:03.271Z,2.20
2019-04-14T23:00:56.987Z,1.90
2019-04-14T23:03:38.746Z,1.80
2019-04-14T23:06:17.416Z,2.10
2019-04-14T23:08:51.954Z,1.90
2019-04-14T23:11:38.326Z,1.85
2019-04-14T23:14:35.400Z,2.20
2019-04-14T23:17:31.945Z,1.75
2019-04-14T23:20:09.062Z,2.00
2019-04-14T23:22:56.689Z,1.95
2019-04-14T23:25:25.366Z,1.77
2019-04-14T23:27:54.017Z,2.00
2019-04-14T23:30:22.707Z,2.15
2019-04-14T23:32:51.282Z,1.90
2019-04-14T23:35:19.828Z,2.50
2019-04-14T23:37:48.465Z,2.00
2019-04-14T23:40:17.067Z,1.85
2019-04-14T23:42:45.657Z,2.50
2019-04-14T23:45:14.336Z,1.70
2019-04-14T23:47:42.973Z,2.10
2019-04-14T23:50:11.703Z,2.27
2019-04-14T23:52:40.287Z,1.87
2019-04-14T23:55:08.920Z,1.80
2019-04-14T23:57:37.553Z,2.15
